createdAt,value
2023-04-11T00:01:49.691Z,5.60
2023-04-11T00:04:20.866Z,5.60
2023-04-11T00:06:50.677Z,6.10
2023-04-11T00:09:18.796Z,5.60
2023-04-11T00:11:46.734Z,5.60
2023-04-11T00:14:15.379Z,5.50
2023-04-11T00:16:43.543Z,5.50
2023-04-11T00:19:12.089Z,5.40
2023-04-11T00:21:40.643Z,5.40
2023-04-11T00:24:10.233Z,5.40
2023-04-11T00:26:38.191Z,5.40
2023-04-11T00:29:06.161Z,5.40
2023-04-11T00:31:34.372Z,5.40
2023-04-11T00:34:02.455Z,5.40
2023-04-11T00:36:31.786Z,5.40
2023-04-11T00:39:01.224Z,5.40
2023-04-11T00:41:30.656Z,5.40
2023-04-11T00:43:58.661Z,5.40
2023-04-11T00:46:27.985Z,5.50
2023-04-11T00:48:56.427Z,5.50
2023-04-11T00:51:24.808Z,5.40
2023-04-11T00:53:52.957Z,5.50
2023-04-11T00:56:22.288Z,7.50
2023-04-11T00:58:51.949Z,6.80
2023-04-11T01:01:20.119Z,6.40
2023-04-11T01:03:48.446Z,5.60
2023-04-11T01:06:19.703Z,5.80
2023-04-11T01:08:49.702Z,5.60
2023-04-11T01:11:20.227Z,5.60
2023-04-11T01:13:49.057Z,5.60
2023-04-11T01:16:21.369Z,5.60
2023-04-11T01:18:49.714Z,5.60
2023-04-11T01:21:20.602Z,5.60
2023-04-11T01:23:52.676Z,5.70
2023-04-11T01:26:20.808Z,5.70
2023-04-11T01:28:48.769Z,5.70
2023-04-11T01:31:16.893Z,5.70
2023-04-11T01:33:45.016Z,5.70
2023-04-11T01:36:13.170Z,5.80
2023-04-11T01:38:41.187Z,5.80
2023-04-11T01:41:11.409Z,5.80
2023-04-11T01:43:39.599Z,5.80
2023-04-11T01:46:08.991Z,6.70
2023-04-11T01:48:37.003Z,5.80
2023-04-11T01:51:05.944Z,5.80
2023-04-11T01:53:34.027Z,5.70
2023-04-11T01:56:01.972Z,5.70
2023-04-11T01:58:31.340Z,5.90
2023-04-11T02:00:59.314Z,5.60
2023-04-11T02:03:27.424Z,5.60
2023-04-11T02:05:55.515Z,5.60
2023-04-11T02:08:23.448Z,5.60
2023-04-11T02:10:51.498Z,5.60
2023-04-11T02:13:19.850Z,6.50
2023-04-11T02:15:49.274Z,5.60
2023-04-11T02:18:17.288Z,5.60
2023-04-11T02:20:45.292Z,6.60
2023-04-11T02:23:14.281Z,5.70
2023-04-11T02:25:42.906Z,5.70
2023-04-11T02:28:10.930Z,5.70
2023-04-11T02:30:38.942Z,5.70
2023-04-11T02:33:08.425Z,5.70
2023-04-11T02:35:36.524Z,5.70
2023-04-11T02:38:04.506Z,6.10
2023-04-11T02:40:32.521Z,5.70
2023-04-11T02:43:01.184Z,5.80
2023-04-11T02:45:29.253Z,5.80
2023-04-11T02:47:58.424Z,5.80
2023-04-11T02:50:27.880Z,6.10
2023-04-11T02:52:55.919Z,5.80
2023-04-11T02:55:24.205Z,5.80
2023-04-11T02:57:52.775Z,5.80
2023-04-11T03:00:21.399Z,5.70
2023-04-11T03:02:50.081Z,5.70
2023-04-11T03:05:18.035Z,5.70
2023-04-11T03:07:47.963Z,5.60
2023-04-11T03:10:16.007Z,5.60
2023-04-11T03:12:43.986Z,5.60
2023-04-11T03:15:15.502Z,5.80
2023-04-11T03:17:43.707Z,5.70
2023-04-11T03:20:13.601Z,5.70
2023-04-11T03:22:41.548Z,5.70
2023-04-11T03:25:11.293Z,5.70
2023-04-11T03:27:39.295Z,5.70
2023-04-11T03:30:08.536Z,5.70
2023-04-11T03:32:36.555Z,5.70
2023-04-11T03:35:04.638Z,5.70
2023-04-11T03:37:32.532Z,5.70
2023-04-11T03:40:00.581Z,6.10
2023-04-11T03:42:29.822Z,5.90
2023-04-11T03:44:57.695Z,5.60
2023-04-11T03:47:25.727Z,5.60
2023-04-11T03:49:53.642Z,5.70
2023-04-11T03:52:21.573Z,5.80
2023-04-11T03:54:49.538Z,6.60
2023-04-11T03:57:17.409Z,5.80
2023-04-11T03:59:47.827Z,5.70
2023-04-11T04:02:16.820Z,5.70
2023-04-11T04:04:48.732Z,5.80
2023-04-11T04:07:18.104Z,5.90
2023-04-11T04:09:46.180Z,6.10
2023-04-11T04:12:14.105Z,5.80
2023-04-11T04:14:42.043Z,6.80
2023-04-11T04:17:11.784Z,5.80
2023-04-11T04:19:39.743Z,5.90
2023-04-11T04:22:11.715Z,6.90
2023-04-11T04:24:39.814Z,6.40
2023-04-11T04:27:09.171Z,6.00
2023-04-11T04:29:39.464Z,5.80
2023-04-11T04:32:10.991Z,6.80
2023-04-11T04:34:46.679Z,5.90
2023-04-11T04:37:21.677Z,6.00
2023-04-11T04:39:54.095Z,5.90
2023-04-11T04:42:26.011Z,5.90
2023-04-11T04:44:55.342Z,6.00
2023-04-11T04:47:24.844Z,6.00
2023-04-11T04:49:57.181Z,6.20
2023-04-11T04:52:27.330Z,5.90
2023-04-11T04:54:57.918Z,5.90
2023-04-11T04:57:25.991Z,6.00
2023-04-11T04:59:53.969Z,5.90
2023-04-11T05:02:22.663Z,5.90
2023-04-11T05:04:50.921Z,5.90
2023-04-11T05:07:20.899Z,5.90
2023-04-11T05:09:48.898Z,5.80
2023-04-11T05:12:17.082Z,5.80
2023-04-11T05:14:45.053Z,5.80
2023-04-11T05:17:12.937Z,5.70
2023-04-11T05:19:40.842Z,6.30
2023-04-11T05:22:08.721Z,5.90
2023-04-11T05:24:38.095Z,6.80
2023-04-11T05:27:06.212Z,5.90
2023-04-11T05:29:34.150Z,6.00
2023-04-11T05:32:02.057Z,6.50
2023-04-11T05:34:33.174Z,6.20
2023-04-11T05:37:01.328Z,6.10
2023-04-11T05:39:29.328Z,6.50
2023-04-11T05:41:58.676Z,6.10
2023-04-11T05:44:26.547Z,6.10
2023-04-11T05:46:54.432Z,6.20
2023-04-11T05:49:22.545Z,6.20
2023-04-11T05:51:50.520Z,6.20
2023-04-11T05:54:31.672Z,7.10
2023-04-11T05:57:01.964Z,7.60
2023-04-11T05:59:30.635Z,6.30
2023-04-11T06:01:58.807Z,6.40
2023-04-11T06:04:27.015Z,6.70
2023-04-11T06:06:55.349Z,6.70
2023-04-11T06:09:23.342Z,6.50
2023-04-11T06:11:51.249Z,6.60
2023-04-11T06:14:20.723Z,6.60
2023-04-11T06:16:48.768Z,6.70
2023-04-11T06:19:16.873Z,6.70
2023-04-11T06:21:44.788Z,6.80
2023-04-11T06:24:12.809Z,6.80
2023-04-11T06:26:40.758Z,6.90
2023-04-11T06:29:08.891Z,7.00
2023-04-11T06:31:38.305Z,7.10
2023-04-11T06:34:06.440Z,7.30
2023-04-11T06:36:34.565Z,7.50
2023-04-11T06:39:02.473Z,7.50
2023-04-11T06:41:30.879Z,7.70
2023-04-11T06:43:59.019Z,8.00
2023-04-11T06:46:27.264Z,8.20
2023-04-11T06:48:56.871Z,8.50
2023-04-11T06:51:24.856Z,8.50
2023-04-11T06:53:54.378Z,8.80
2023-04-11T06:56:22.482Z,8.90
2023-04-11T06:58:50.496Z,9.00
2023-04-11T07:01:20.650Z,9.90
2023-04-11T07:03:50.328Z,9.10
2023-04-11T07:06:20.394Z,9.20
2023-04-11T07:08:48.313Z,9.20
2023-04-11T07:11:16.680Z,9.30
2023-04-11T07:13:45.591Z,9.50
2023-04-11T07:16:13.539Z,10.20
2023-04-11T07:18:41.485Z,10.30
2023-04-11T07:21:12.689Z,10.50
2023-04-11T07:23:42.490Z,10.50
2023-04-11T07:26:11.182Z,10.20
2023-04-11T07:28:40.296Z,10.30
2023-04-11T07:31:09.688Z,10.20
2023-04-11T07:33:38.019Z,10.10
2023-04-11T07:36:07.198Z,10.00
2023-04-11T07:38:37.496Z,9.90
2023-04-11T07:41:07.315Z,10.00
2023-04-11T07:43:35.400Z,9.40
2023-04-11T07:46:03.596Z,8.90
2023-04-11T07:48:32.499Z,9.30
2023-04-11T07:51:00.476Z,8.20
2023-04-11T07:53:28.484Z,7.90
2023-04-11T07:55:56.477Z,7.70
2023-04-11T07:58:25.973Z,7.50
2023-04-11T08:00:53.968Z,7.50
2023-04-11T08:03:23.615Z,7.50
2023-04-11T08:05:52.320Z,8.30
2023-04-11T08:08:20.735Z,7.50
2023-04-11T08:10:51.407Z,8.60
2023-04-11T08:13:23.085Z,7.60
2023-04-11T08:15:52.481Z,7.70
2023-04-11T08:18:21.639Z,7.70
2023-04-11T08:20:49.806Z,7.70
2023-04-11T08:23:19.767Z,7.90
2023-04-11T08:25:47.834Z,7.90
2023-04-11T08:28:15.939Z,8.00
2023-04-11T08:30:43.907Z,7.20
2023-04-11T08:33:14.595Z,8.00
2023-04-11T08:35:43.434Z,9.60
2023-04-11T08:38:13.622Z,8.10
2023-04-11T08:40:41.739Z,8.20
2023-04-11T08:43:12.443Z,9.50
2023-04-11T08:45:40.949Z,8.10
2023-04-11T08:48:12.284Z,8.00
2023-04-11T08:50:42.485Z,7.90
2023-04-11T08:53:10.745Z,8.90
2023-04-11T08:55:46.125Z,7.70
2023-04-11T08:58:14.239Z,7.60
2023-04-11T09:00:42.317Z,7.50
2023-04-11T09:03:12.538Z,7.50
2023-04-11T09:05:45.090Z,7.50
2023-04-11T09:08:14.573Z,7.50
2023-04-11T09:10:45.098Z,7.50
2023-04-11T09:13:25.491Z,7.40
2023-04-11T09:16:06.001Z,7.50
2023-04-11T09:18:35.429Z,7.50
2023-04-11T09:21:06.378Z,7.50
2023-04-11T09:23:34.603Z,7.70
2023-04-11T09:26:02.811Z,7.90
2023-04-11T09:28:41.667Z,9.10
2023-04-11T09:31:12.939Z,8.50
2023-04-11T09:33:52.725Z,8.80
2023-04-11T09:36:24.940Z,8.90
2023-04-11T09:38:54.014Z,8.90
2023-04-11T09:41:32.191Z,8.90
2023-04-11T09:44:00.874Z,9.00
2023-04-11T09:46:29.160Z,9.50
2023-04-11T09:48:57.491Z,9.80
2023-04-11T09:53:58.926Z,9.90
2023-04-11T09:56:27.720Z,9.90
2023-04-11T09:58:57.805Z,10.10
2023-04-11T10:01:26.143Z,11.40
2023-04-11T10:03:57.699Z,10.60
2023-04-11T10:06:34.036Z,10.30
2023-04-11T10:09:09.745Z,10.80
2023-04-11T10:11:38.082Z,10.60
2023-04-11T10:14:06.124Z,10.30
2023-04-11T10:16:34.611Z,10.00
2023-04-11T10:19:25.245Z,9.80
2023-04-11T10:21:54.725Z,9.70
2023-04-11T10:24:22.907Z,9.70
2023-04-11T10:26:52.869Z,10.00
2023-04-11T10:29:50.671Z,10.30
2023-04-11T10:32:30.236Z,10.00
2023-04-11T10:35:31.626Z,9.70
2023-04-11T10:38:01.097Z,9.60
2023-04-11T10:40:32.082Z,9.60
2023-04-11T10:43:20.842Z,9.50
2023-04-11T10:46:18.180Z,9.70
2023-04-11T10:48:58.601Z,10.00
2023-04-11T10:51:27.833Z,10.60
2023-04-11T10:53:59.490Z,11.10
2023-04-11T10:56:54.954Z,11.60
2023-04-11T10:59:57.018Z,11.20
2023-04-11T11:02:40.198Z,11.10
2023-04-11T11:05:25.190Z,11.00
2023-04-11T11:07:54.785Z,11.30
2023-04-11T11:10:46.073Z,11.40
2023-04-11T11:13:16.299Z,11.40
2023-04-11T11:15:49.602Z,11.60
2023-04-11T11:18:19.229Z,12.40
2023-04-11T11:20:47.905Z,13.00
2023-04-11T11:23:19.143Z,13.10
2023-04-11T11:25:55.693Z,12.90
2023-04-11T11:28:24.072Z,13.80
2023-04-11T11:30:55.040Z,14.80
2023-04-11T11:33:26.413Z,17.20
2023-04-11T11:35:58.432Z,16.20
2023-04-11T11:38:28.577Z,14.90
2023-04-11T11:40:59.088Z,16.10
2023-04-11T11:43:28.312Z,17.50
2023-04-11T11:46:10.583Z,15.10
2023-04-11T11:48:38.683Z,14.20
2023-04-11T11:51:07.321Z,13.80
2023-04-11T11:53:35.464Z,13.10
2023-04-11T11:56:15.527Z,14.10
2023-04-11T11:58:45.031Z,12.20
2023-04-11T12:01:15.827Z,12.40
2023-04-11T12:03:44.454Z,11.20
2023-04-11T12:06:13.453Z,11.10
2023-04-11T12:08:45.764Z,11.10
2023-04-11T12:11:16.619Z,11.00
2023-04-11T12:13:53.856Z,11.10
2023-04-11T12:16:23.556Z,12.50
2023-04-11T12:18:51.686Z,10.70
2023-04-11T12:21:19.661Z,10.90
2023-04-11T12:23:47.622Z,10.90
2023-04-11T12:26:17.964Z,10.80
2023-04-11T12:28:45.885Z,10.40
2023-04-11T12:31:20.012Z,10.30
2023-04-11T12:33:48.190Z,10.50
2023-04-11T12:36:16.122Z,11.50
2023-04-11T12:38:44.073Z,11.10
2023-04-11T12:41:30.801Z,11.30
2023-04-11T12:44:04.086Z,11.10
2023-04-11T12:46:33.579Z,10.70
2023-04-11T12:49:01.691Z,10.70
2023-04-11T12:51:29.663Z,10.50
2023-04-11T12:53:57.612Z,10.50
2023-04-11T12:56:26.996Z,10.50
2023-04-11T12:58:55.192Z,10.60
2023-04-11T13:01:24.845Z,10.50
2023-04-11T13:03:53.055Z,11.80
2023-04-11T13:06:21.169Z,10.30
2023-04-11T13:08:49.130Z,10.50
2023-04-11T13:11:17.051Z,10.30
2023-04-11T13:13:45.079Z,10.30
2023-04-11T13:16:13.204Z,10.60
2023-04-11T13:18:42.688Z,11.40
2023-04-11T13:21:10.624Z,12.10
2023-04-11T13:23:38.573Z,12.50
2023-04-11T13:26:07.172Z,12.80
2023-04-11T13:28:36.562Z,13.10
2023-04-11T13:31:04.555Z,14.20
2023-04-11T13:33:32.566Z,13.60
2023-04-11T13:36:02.429Z,13.60
2023-04-11T13:38:30.583Z,13.90
2023-04-11T13:40:58.463Z,14.10
2023-04-11T13:43:26.510Z,14.50
2023-04-11T13:45:54.505Z,15.10
2023-04-11T13:48:22.461Z,15.20
2023-04-11T13:50:50.361Z,15.60
2023-04-11T13:53:19.875Z,15.60
2023-04-11T13:55:49.074Z,15.20
2023-04-11T13:58:17.120Z,14.90
2023-04-11T14:00:45.800Z,16.30
2023-04-11T14:03:14.328Z,15.50
2023-04-11T14:05:42.362Z,15.10
2023-04-11T14:08:10.383Z,14.90
2023-04-11T14:10:39.668Z,14.90
2023-04-11T14:13:07.651Z,14.90
2023-04-11T14:15:35.868Z,14.90
2023-04-11T14:18:03.814Z,15.30
2023-04-11T14:20:31.987Z,15.40
2023-04-11T14:23:01.058Z,15.00
2023-04-11T14:25:29.028Z,14.40
2023-04-11T14:27:58.331Z,13.70
2023-04-11T14:30:26.631Z,12.70
2023-04-11T14:32:54.870Z,13.20
2023-04-11T14:35:22.948Z,12.30
2023-04-11T14:37:51.089Z,11.90
2023-04-11T14:40:19.211Z,11.80
2023-04-11T14:42:47.183Z,11.60
2023-04-11T14:45:16.581Z,11.30
2023-04-11T14:47:44.587Z,11.40
2023-04-11T14:50:12.740Z,12.00
2023-04-11T14:52:40.720Z,11.80
2023-04-11T14:55:09.816Z,12.10
2023-04-11T14:57:48.382Z,12.20
2023-04-11T15:00:22.343Z,12.40
2023-04-11T15:02:52.432Z,12.40
2023-04-11T15:05:20.847Z,12.50
2023-04-11T15:07:50.116Z,12.60
2023-04-11T15:10:19.298Z,13.00
2023-04-11T15:12:47.547Z,13.00
2023-04-11T15:15:17.316Z,13.20
2023-04-11T15:17:47.511Z,13.10
2023-04-11T15:20:16.474Z,13.00
2023-04-11T15:22:45.779Z,13.10
2023-04-11T15:25:16.121Z,12.50
2023-04-11T15:27:44.227Z,12.50
2023-04-11T15:30:12.834Z,12.30
2023-04-11T15:32:44.506Z,12.30
2023-04-11T15:35:12.838Z,12.30
2023-04-11T15:37:41.080Z,11.70
2023-04-11T15:40:12.011Z,11.20
2023-04-11T15:42:40.414Z,10.50
2023-04-11T15:45:09.282Z,10.60
2023-04-11T15:47:37.310Z,8.80
2023-04-11T15:50:07.631Z,8.50
2023-04-11T15:52:35.761Z,8.30
2023-04-11T15:55:03.714Z,8.30
2023-04-11T15:57:31.740Z,8.10
2023-04-11T15:59:59.878Z,8.20
2023-04-11T16:02:28.160Z,8.20
2023-04-11T16:04:56.622Z,8.20
2023-04-11T16:07:26.019Z,8.40
2023-04-11T16:09:54.065Z,8.50
2023-04-11T16:12:22.240Z,9.20
2023-04-11T16:14:50.173Z,9.50
2023-04-11T16:17:19.083Z,10.00
2023-04-11T16:19:47.039Z,8.90
2023-04-11T16:22:15.044Z,8.90
2023-04-11T16:24:44.393Z,11.30
2023-04-11T16:27:12.383Z,8.80
2023-04-11T16:29:41.902Z,8.80
2023-04-11T16:32:10.298Z,8.80
2023-04-11T16:34:38.597Z,8.70
2023-04-11T16:37:06.720Z,10.00
2023-04-11T16:39:34.844Z,8.70
2023-04-11T16:42:04.135Z,8.80
2023-04-11T16:44:32.030Z,8.70
2023-04-11T16:46:59.924Z,8.80
2023-04-11T16:49:27.801Z,8.80
2023-04-11T16:51:55.692Z,8.80
2023-04-11T16:54:23.624Z,8.80
2023-04-11T16:56:51.518Z,8.80
2023-04-11T16:59:21.475Z,9.00
2023-04-11T17:01:49.536Z,11.10
2023-04-11T17:04:17.762Z,9.10
2023-04-11T17:06:46.303Z,9.10
2023-04-11T17:09:14.506Z,9.10
2023-04-11T17:11:42.419Z,9.00
2023-04-11T17:14:10.482Z,9.00
2023-04-11T17:16:39.991Z,8.90
2023-04-11T17:19:08.030Z,8.80
2023-04-11T17:21:36.226Z,8.70
2023-04-11T17:24:04.296Z,9.50
2023-04-11T17:26:32.191Z,8.50
2023-04-11T17:29:00.134Z,8.40
2023-04-11T17:31:29.190Z,8.40
2023-04-11T17:33:59.036Z,9.80
2023-04-11T17:36:28.227Z,8.20
2023-04-11T17:38:56.163Z,8.50
2023-04-11T17:41:24.134Z,8.00
2023-04-11T17:43:52.059Z,8.00
2023-04-11T17:46:20.387Z,8.70
2023-04-11T17:48:48.379Z,7.70
2023-04-11T17:51:17.607Z,7.60
2023-04-11T17:53:45.708Z,8.70
2023-04-11T17:56:14.440Z,7.20
2023-04-11T17:58:44.891Z,7.40
2023-04-11T18:01:12.916Z,6.90
2023-04-11T18:03:41.391Z,6.80
2023-04-11T18:06:10.839Z,6.60
2023-04-11T18:11:12.228Z,6.40
2023-04-11T18:13:40.186Z,6.20
2023-04-11T18:16:08.328Z,6.10
2023-04-11T18:18:36.787Z,6.00
2023-04-11T18:21:07.518Z,6.00
2023-04-11T18:23:36.126Z,5.80
2023-04-11T18:26:05.567Z,5.70
2023-04-11T18:28:33.603Z,5.70
2023-04-11T18:31:01.712Z,5.60
2023-04-11T18:33:29.820Z,5.50
2023-04-11T18:35:57.846Z,5.50
2023-04-11T18:38:26.492Z,5.40
2023-04-11T18:40:55.856Z,5.30
2023-04-11T18:43:26.189Z,5.20
2023-04-11T18:45:54.334Z,5.10
2023-04-11T18:48:22.332Z,5.20
2023-04-11T18:50:59.230Z,5.10
2023-04-11T18:53:28.333Z,4.90
2023-04-11T18:55:56.297Z,4.80
2023-04-11T18:58:26.832Z,4.70
2023-04-11T19:00:56.004Z,4.60
2023-04-11T19:03:24.353Z,4.60
2023-04-11T19:05:53.002Z,4.50
2023-04-11T19:08:21.029Z,4.70
2023-04-11T19:10:48.932Z,4.30
2023-04-11T19:13:16.905Z,4.30
2023-04-11T19:15:46.677Z,4.20
2023-04-11T19:18:14.926Z,4.30
2023-04-11T19:20:42.920Z,4.10
2023-04-11T19:23:10.896Z,4.00
2023-04-11T19:25:39.484Z,3.90
2023-04-11T19:28:07.517Z,3.90
2023-04-11T19:30:35.760Z,3.80
2023-04-11T19:33:05.316Z,3.70
2023-04-11T19:35:33.443Z,3.60
2023-04-11T19:38:05.652Z,3.60
2023-04-11T19:40:33.598Z,3.70
2023-04-11T19:43:01.524Z,3.50
2023-04-11T19:45:31.593Z,3.40
2023-04-11T19:48:00.269Z,4.10
2023-04-11T19:50:30.308Z,3.60
2023-04-11T19:52:58.440Z,3.30
2023-04-11T19:55:27.391Z,3.70
2023-04-11T19:57:55.403Z,3.20
2023-04-11T20:00:25.055Z,3.20
2023-04-11T20:02:54.030Z,3.10
2023-04-11T20:05:22.614Z,3.10
2023-04-11T20:07:52.129Z,3.10
2023-04-11T20:10:20.052Z,3.00
2023-04-11T20:12:47.979Z,3.10
2023-04-11T20:15:16.084Z,3.20
2023-04-11T20:17:46.143Z,4.20
2023-04-11T20:20:15.372Z,3.10
2023-04-11T20:22:44.717Z,3.00
2023-04-11T20:25:14.137Z,3.00
2023-04-11T20:27:43.510Z,3.50
2023-04-11T20:30:13.182Z,2.90
2023-04-11T20:32:41.912Z,2.90
2023-04-11T20:35:12.078Z,2.80
2023-04-11T20:37:41.357Z,2.80
2023-04-11T20:40:10.871Z,2.80
2023-04-11T20:42:41.182Z,2.70
2023-04-11T20:45:11.202Z,3.60
2023-04-11T20:47:39.715Z,2.50
2023-04-11T20:50:10.436Z,2.60
2023-04-11T20:52:41.196Z,2.50
2023-04-11T20:55:10.670Z,2.40
2023-04-11T20:57:40.360Z,2.30
2023-04-11T21:00:13.958Z,2.30
2023-04-11T21:02:44.251Z,2.10
2023-04-11T21:05:12.952Z,2.10
2023-04-11T21:07:41.438Z,2.10
2023-04-11T21:10:10.543Z,2.00
2023-04-11T21:12:40.833Z,2.00
2023-04-11T21:15:10.052Z,1.90
2023-04-11T21:17:39.542Z,1.90
2023-04-11T21:20:17.552Z,1.90
2023-04-11T21:22:46.468Z,1.90
2023-04-11T21:25:14.618Z,1.90
2023-04-11T21:27:44.248Z,2.50
2023-04-11T21:30:13.046Z,1.80
2023-04-11T21:32:44.482Z,1.80
2023-04-11T21:35:12.890Z,2.50
2023-04-11T21:37:41.029Z,2.70
2023-04-11T21:40:09.972Z,3.20
2023-04-11T21:42:38.011Z,1.80
2023-04-11T21:45:09.332Z,1.80
2023-04-11T21:47:37.518Z,1.80
2023-04-11T21:50:06.028Z,2.70
2023-04-11T21:52:33.946Z,1.80
2023-04-11T21:55:01.909Z,1.80
2023-04-11T21:57:32.727Z,1.70
2023-04-11T22:00:00.672Z,2.90
2023-04-11T22:02:30.235Z,2.50
2023-04-11T22:05:06.435Z,2.70
2023-04-11T22:07:39.225Z,1.50
2023-04-11T22:10:12.150Z,1.50
2023-04-11T22:12:40.621Z,1.50
2023-04-11T22:15:12.412Z,1.50
2023-04-11T22:17:43.869Z,1.40
2023-04-11T22:20:13.171Z,1.40
2023-04-11T22:22:42.106Z,1.30
2023-04-11T22:25:11.453Z,3.00
2023-04-11T22:27:39.496Z,1.20
2023-04-11T22:30:08.761Z,1.90
2023-04-11T22:32:37.132Z,1.10
2023-04-11T22:35:08.256Z,1.00
2023-04-11T22:37:36.336Z,1.00
2023-04-11T22:40:05.953Z,0.90
2023-04-11T22:42:33.907Z,2.10
2023-04-11T22:45:01.817Z,2.50
2023-04-11T22:47:29.927Z,0.90
2023-04-11T22:49:57.869Z,0.80
2023-04-11T22:52:30.333Z,0.90
2023-04-11T22:54:58.342Z,1.30
2023-04-11T22:57:26.384Z,0.90
2023-04-11T22:59:54.340Z,0.80
2023-04-11T23:02:23.192Z,0.80
2023-04-11T23:04:51.444Z,0.90
2023-04-11T23:07:19.452Z,0.80
2023-04-11T23:09:48.820Z,0.90
2023-04-11T23:12:17.111Z,0.70
2023-04-11T23:14:46.575Z,1.90
2023-04-11T23:17:14.528Z,0.80
2023-04-11T23:19:42.528Z,2.30
2023-04-11T23:22:10.584Z,0.70
2023-04-11T23:24:38.580Z,0.70
2023-04-11T23:27:08.537Z,0.70
2023-04-11T23:29:37.062Z,1.50
2023-04-11T23:32:05.100Z,0.70
2023-04-11T23:34:33.024Z,0.70
2023-04-11T23:37:00.959Z,0.70
2023-04-11T23:39:29.472Z,1.50
2023-04-11T23:41:57.424Z,1.70
2023-04-11T23:44:26.724Z,0.70
2023-04-11T23:46:54.639Z,0.80
2023-04-11T23:49:22.616Z,0.80
2023-04-11T23:51:50.648Z,2.10
2023-04-11T23:54:18.713Z,0.90
2023-04-11T23:56:46.632Z,0.90
2023-04-11T23:59:14.620Z,0.90
